Sandy Hill, Louisiana
Current Conditions -  °F | °C
As of 5:58 AM on Friday 28 Nov 2014 (Local Time) from KPOE Reporting Station
Clear Clear  
Wind Chill: 32°   Ceiling: Unl
Heat Index: 36°   Visibility: 9mi
Dew Point: 33°   Wind: 5mph
Humidity: 88%   Direction: 150°SSE
Pressure: 30.38"   Gusts: NA
Location:  31.2063°N, 93.1344°W
Report Text: KPOE 281158Z AUTO 15004KT 9SM CLR 02/01 A3038 RMK AO2 SLP291 T00230005 10050 20016 58008
Loading
Personal Weather Stations






























Interactive Weather Map New forecast layout! Learn more

10-Day Weather Forecast

Advertisements
Track Severe Weather on mobile